sensor_id;sensor_type;location;lat;lon;timestamp;P1;durP1;ratioP1;P2;durP2;ratioP2
75246;SDS011;63844;50.042;19.224;2023-03-20T00:01:48;91.90;;;38.90;;
75246;SDS011;63844;50.042;19.224;2023-03-20T00:04:15;89.90;;;37.70;;
75246;SDS011;63844;50.042;19.224;2023-03-20T00:06:41;87.30;;;39.90;;
75246;SDS011;63844;50.042;19.224;2023-03-20T00:09:07;87.80;;;37.70;;
75246;SDS011;63844;50.042;19.224;2023-03-20T00:11:35;87.20;;;38.90;;
75246;SDS011;63844;50.042;19.224;2023-03-20T00:14:13;84.00;;;36.00;;
75246;SDS011;63844;50.042;19.224;2023-03-20T00:16:42;90.50;;;40.50;;
75246;SDS011;63844;50.042;19.224;2023-03-20T00:19:23;89.80;;;37.80;;
75246;SDS011;63844;50.042;19.224;2023-03-20T00:21:51;79.90;;;36.00;;
75246;SDS011;63844;50.042;19.224;2023-03-20T00:24:19;72.90;;;34.40;;
75246;SDS011;63844;50.042;19.224;2023-03-20T00:26:46;92.00;;;41.00;;
75246;SDS011;63844;50.042;19.224;2023-03-20T00:29:21;82.30;;;36.90;;
75246;SDS011;63844;50.042;19.224;2023-03-20T00:31:50;86.70;;;37.80;;
75246;SDS011;63844;50.042;19.224;2023-03-20T00:34:18;88.30;;;39.80;;
75246;SDS011;63844;50.042;19.224;2023-03-20T00:36:47;88.80;;;39.90;;
75246;SDS011;63844;50.042;19.224;2023-03-20T00:39:14;82.60;;;37.60;;
75246;SDS011;63844;50.042;19.224;2023-03-20T00:41:46;84.30;;;38.10;;
75246;SDS011;63844;50.042;19.224;2023-03-20T00:46:56;81.40;;;36.90;;
75246;SDS011;63844;50.042;19.224;2023-03-20T00:49:25;96.20;;;40.70;;
75246;SDS011;63844;50.042;19.224;2023-03-20T00:52:00;91.20;;;41.90;;
75246;SDS011;63844;50.042;19.224;2023-03-20T00:54:28;83.00;;;35.90;;
75246;SDS011;63844;50.042;19.224;2023-03-20T00:59:32;77.70;;;36.00;;
75246;SDS011;63844;50.042;19.224;2023-03-20T01:02:03;85.90;;;38.30;;
75246;SDS011;63844;50.042;19.224;2023-03-20T01:04:37;80.20;;;37.70;;
75246;SDS011;63844;50.042;19.224;2023-03-20T01:07:07;98.30;;;41.60;;
75246;SDS011;63844;50.042;19.224;2023-03-20T01:09:37;81.80;;;37.50;;
75246;SDS011;63844;50.042;19.224;2023-03-20T01:12:04;77.70;;;37.00;;
75246;SDS011;63844;50.042;19.224;2023-03-20T01:14:33;85.00;;;40.00;;
75246;SDS011;63844;50.042;19.224;2023-03-20T01:17:00;89.00;;;39.90;;
75246;SDS011;63844;50.042;19.224;2023-03-20T01:19:26;92.60;;;42.30;;
75246;SDS011;63844;50.042;19.224;2023-03-20T01:21:52;82.10;;;38.90;;
75246;SDS011;63844;50.042;19.224;2023-03-20T01:24:19;82.90;;;38.90;;
75246;SDS011;63844;50.042;19.224;2023-03-20T01:26:45;79.40;;;37.00;;
75246;SDS011;63844;50.042;19.224;2023-03-20T01:29:19;83.70;;;40.30;;
75246;SDS011;63844;50.042;19.224;2023-03-20T01:31:52;80.60;;;38.50;;
75246;SDS011;63844;50.042;19.224;2023-03-20T01:34:19;91.80;;;40.40;;
75246;SDS011;63844;50.042;19.224;2023-03-20T01:39:21;75.90;;;33.00;;
75246;SDS011;63844;50.042;19.224;2023-03-20T01:41:53;82.10;;;36.80;;
75246;SDS011;63844;50.042;19.224;2023-03-20T01:44:21;75.80;;;36.10;;
75246;SDS011;63844;50.042;19.224;2023-03-20T01:46:51;80.80;;;36.30;;
75246;SDS011;63844;50.042;19.224;2023-03-20T01:51:45;81.00;;;37.90;;
75246;SDS011;63844;50.042;19.224;2023-03-20T01:54:29;88.50;;;42.00;;
75246;SDS011;63844;50.042;19.224;2023-03-20T01:59:41;85.50;;;38.20;;
75246;SDS011;63844;50.042;19.224;2023-03-20T02:02:13;92.90;;;42.40;;
75246;SDS011;63844;50.042;19.224;2023-03-20T02:04:44;89.30;;;40.50;;
75246;SDS011;63844;50.042;19.224;2023-03-20T02:07:13;85.60;;;40.70;;
75246;SDS011;63844;50.042;19.224;2023-03-20T02:09:43;89.60;;;39.30;;
75246;SDS011;63844;50.042;19.224;2023-03-20T02:12:12;89.30;;;42.40;;
75246;SDS011;63844;50.042;19.224;2023-03-20T02:14:39;86.60;;;40.20;;
75246;SDS011;63844;50.042;19.224;2023-03-20T02:17:06;78.00;;;36.50;;
75246;SDS011;63844;50.042;19.224;2023-03-20T02:34:12;83.10;;;39.70;;
75246;SDS011;63844;50.042;19.224;2023-03-20T02:40:16;75.10;;;34.60;;
75246;SDS011;63844;50.042;19.224;2023-03-20T02:43:00;80.70;;;36.50;;
75246;SDS011;63844;50.042;19.224;2023-03-20T02:45:52;78.20;;;36.60;;
75246;SDS011;63844;50.042;19.224;2023-03-20T02:51:31;76.40;;;35.40;;
75246;SDS011;63844;50.042;19.224;2023-03-20T02:54:19;67.80;;;31.60;;
75246;SDS011;63844;50.042;19.224;2023-03-20T02:56:58;78.50;;;34.40;;
75246;SDS011;63844;50.042;19.224;2023-03-20T02:59:40;69.60;;;34.10;;
75246;SDS011;63844;50.042;19.224;2023-03-20T03:02:25;80.30;;;38.20;;
75246;SDS011;63844;50.042;19.224;2023-03-20T03:04:57;85.50;;;39.20;;
75246;SDS011;63844;50.042;19.224;2023-03-20T03:07:29;83.90;;;36.30;;
75246;SDS011;63844;50.042;19.224;2023-03-20T03:09:59;75.90;;;34.40;;
75246;SDS011;63844;50.042;19.224;2023-03-20T03:12:32;70.90;;;33.40;;
75246;SDS011;63844;50.042;19.224;2023-03-20T03:15:16;77.50;;;34.90;;
75246;SDS011;63844;50.042;19.224;2023-03-20T03:17:49;87.30;;;39.50;;
75246;SDS011;63844;50.042;19.224;2023-03-20T03:20:18;83.40;;;39.20;;
75246;SDS011;63844;50.042;19.224;2023-03-20T03:22:49;78.50;;;36.90;;
75246;SDS011;63844;50.042;19.224;2023-03-20T03:25:16;82.70;;;38.90;;
75246;SDS011;63844;50.042;19.224;2023-03-20T03:27:46;77.60;;;35.70;;
75246;SDS011;63844;50.042;19.224;2023-03-20T03:30:23;89.00;;;39.60;;
75246;SDS011;63844;50.042;19.224;2023-03-20T03:33:12;81.20;;;37.80;;
75246;SDS011;63844;50.042;19.224;2023-03-20T03:35:45;86.00;;;40.60;;
75246;SDS011;63844;50.042;19.224;2023-03-20T03:38:17;76.00;;;36.10;;
75246;SDS011;63844;50.042;19.224;2023-03-20T03:41:11;76.10;;;36.60;;
75246;SDS011;63844;50.042;19.224;2023-03-20T03:46:38;77.10;;;35.80;;
75246;SDS011;63844;50.042;19.224;2023-03-20T03:49:09;82.80;;;40.50;;
75246;SDS011;63844;50.042;19.224;2023-03-20T03:51:41;85.90;;;36.50;;
75246;SDS011;63844;50.042;19.224;2023-03-20T03:54:15;79.00;;;38.10;;
75246;SDS011;63844;50.042;19.224;2023-03-20T03:56:46;75.00;;;35.70;;
75246;SDS011;63844;50.042;19.224;2023-03-20T03:59:29;85.90;;;41.50;;
75246;SDS011;63844;50.042;19.224;2023-03-20T04:02:01;72.70;;;34.50;;
75246;SDS011;63844;50.042;19.224;2023-03-20T04:04:31;81.30;;;37.70;;
75246;SDS011;63844;50.042;19.224;2023-03-20T04:06:59;91.00;;;39.00;;
75246;SDS011;63844;50.042;19.224;2023-03-20T04:09:26;73.20;;;37.40;;
75246;SDS011;63844;50.042;19.224;2023-03-20T04:11:52;83.40;;;39.60;;
75246;SDS011;63844;50.042;19.224;2023-03-20T04:14:19;78.70;;;36.40;;
75246;SDS011;63844;50.042;19.224;2023-03-20T04:16:45;83.80;;;38.50;;
75246;SDS011;63844;50.042;19.224;2023-03-20T04:19:12;83.40;;;38.00;;
75246;SDS011;63844;50.042;19.224;2023-03-20T04:21:38;85.50;;;38.30;;
75246;SDS011;63844;50.042;19.224;2023-03-20T04:24:05;71.40;;;33.40;;
75246;SDS011;63844;50.042;19.224;2023-03-20T04:26:32;74.50;;;36.70;;
75246;SDS011;63844;50.042;19.224;2023-03-20T04:28:58;84.80;;;39.80;;
75246;SDS011;63844;50.042;19.224;2023-03-20T04:31:25;76.60;;;35.20;;
75246;SDS011;63844;50.042;19.224;2023-03-20T04:33:53;82.20;;;36.40;;
75246;SDS011;63844;50.042;19.224;2023-03-20T04:36:20;80.00;;;38.30;;
75246;SDS011;63844;50.042;19.224;2023-03-20T04:38:46;86.10;;;40.10;;
75246;SDS011;63844;50.042;19.224;2023-03-20T04:41:13;83.60;;;40.30;;
75246;SDS011;63844;50.042;19.224;2023-03-20T04:43:39;69.70;;;33.90;;
75246;SDS011;63844;50.042;19.224;2023-03-20T04:46:06;79.60;;;37.20;;
75246;SDS011;63844;50.042;19.224;2023-03-20T04:48:32;86.10;;;38.40;;
75246;SDS011;63844;50.042;19.224;2023-03-20T04:50:58;73.80;;;34.40;;
75246;SDS011;63844;50.042;19.224;2023-03-20T04:53:25;80.60;;;38.70;;
75246;SDS011;63844;50.042;19.224;2023-03-20T04:55:51;74.40;;;34.20;;
75246;SDS011;63844;50.042;19.224;2023-03-20T04:58:18;74.30;;;33.40;;
75246;SDS011;63844;50.042;19.224;2023-03-20T05:00:44;71.30;;;34.90;;
75246;SDS011;63844;50.042;19.224;2023-03-20T05:05:38;56.30;;;25.80;;
75246;SDS011;63844;50.042;19.224;2023-03-20T05:08:04;72.20;;;34.50;;
75246;SDS011;63844;50.042;19.224;2023-03-20T05:10:31;75.10;;;34.70;;
75246;SDS011;63844;50.042;19.224;2023-03-20T05:12:58;77.80;;;34.20;;
75246;SDS011;63844;50.042;19.224;2023-03-20T05:15:24;70.50;;;33.00;;
75246;SDS011;63844;50.042;19.224;2023-03-20T05:17:51;64.70;;;33.70;;
75246;SDS011;63844;50.042;19.224;2023-03-20T05:20:18;81.00;;;36.40;;
75246;SDS011;63844;50.042;19.224;2023-03-20T05:22:47;69.80;;;32.80;;
75246;SDS011;63844;50.042;19.224;2023-03-20T05:25:14;66.80;;;32.10;;
75246;SDS011;63844;50.042;19.224;2023-03-20T05:27:41;66.50;;;31.30;;
75246;SDS011;63844;50.042;19.224;2023-03-20T05:30:07;67.10;;;30.90;;
75246;SDS011;63844;50.042;19.224;2023-03-20T05:32:34;57.70;;;27.00;;
75246;SDS011;63844;50.042;19.224;2023-03-20T05:35:02;57.10;;;27.90;;
75246;SDS011;63844;50.042;19.224;2023-03-20T05:37:28;69.40;;;33.40;;
75246;SDS011;63844;50.042;19.224;2023-03-20T05:39:54;71.50;;;34.10;;
75246;SDS011;63844;50.042;19.224;2023-03-20T05:42:21;76.40;;;33.70;;
75246;SDS011;63844;50.042;19.224;2023-03-20T05:44:47;65.60;;;31.70;;
75246;SDS011;63844;50.042;19.224;2023-03-20T05:47:14;65.90;;;31.60;;
75246;SDS011;63844;50.042;19.224;2023-03-20T05:49:40;62.80;;;30.80;;
75246;SDS011;63844;50.042;19.224;2023-03-20T05:52:07;68.30;;;35.00;;
75246;SDS011;63844;50.042;19.224;2023-03-20T05:54:33;65.10;;;29.70;;
75246;SDS011;63844;50.042;19.224;2023-03-20T05:57:00;63.00;;;31.50;;
75246;SDS011;63844;50.042;19.224;2023-03-20T05:59:27;64.00;;;30.10;;
75246;SDS011;63844;50.042;19.224;2023-03-20T06:01:53;69.20;;;32.10;;
75246;SDS011;63844;50.042;19.224;2023-03-20T06:04:20;64.90;;;31.50;;
75246;SDS011;63844;50.042;19.224;2023-03-20T06:06:46;52.20;;;23.40;;
75246;SDS011;63844;50.042;19.224;2023-03-20T06:09:13;64.50;;;30.20;;
75246;SDS011;63844;50.042;19.224;2023-03-20T06:11:39;52.20;;;25.40;;
75246;SDS011;63844;50.042;19.224;2023-03-20T06:14:05;52.30;;;23.80;;
75246;SDS011;63844;50.042;19.224;2023-03-20T06:16:32;41.80;;;16.80;;
75246;SDS011;63844;50.042;19.224;2023-03-20T06:18:58;37.90;;;18.00;;
75246;SDS011;63844;50.042;19.224;2023-03-20T06:21:25;32.50;;;16.50;;
75246;SDS011;63844;50.042;19.224;2023-03-20T06:23:51;35.70;;;17.40;;
75246;SDS011;63844;50.042;19.224;2023-03-20T06:26:19;35.30;;;16.30;;
75246;SDS011;63844;50.042;19.224;2023-03-20T06:28:46;37.50;;;17.30;;
75246;SDS011;63844;50.042;19.224;2023-03-20T06:31:13;31.70;;;15.50;;
75246;SDS011;63844;50.042;19.224;2023-03-20T06:33:39;35.10;;;15.20;;
75246;SDS011;63844;50.042;19.224;2023-03-20T06:36:06;26.30;;;13.20;;
75246;SDS011;63844;50.042;19.224;2023-03-20T06:38:32;27.60;;;14.50;;
75246;SDS011;63844;50.042;19.224;2023-03-20T06:40:59;23.80;;;12.10;;
75246;SDS011;63844;50.042;19.224;2023-03-20T06:43:26;27.40;;;12.20;;
75246;SDS011;63844;50.042;19.224;2023-03-20T06:45:52;26.90;;;12.70;;
75246;SDS011;63844;50.042;19.224;2023-03-20T06:48:19;23.90;;;11.90;;
75246;SDS011;63844;50.042;19.224;2023-03-20T06:50:48;19.70;;;9.90;;
75246;SDS011;63844;50.042;19.224;2023-03-20T06:53:16;24.40;;;11.20;;
75246;SDS011;63844;50.042;19.224;2023-03-20T06:55:46;22.20;;;10.50;;
75246;SDS011;63844;50.042;19.224;2023-03-20T06:58:14;23.60;;;11.20;;
75246;SDS011;63844;50.042;19.224;2023-03-20T07:00:41;25.70;;;11.80;;
75246;SDS011;63844;50.042;19.224;2023-03-20T07:05:35;24.30;;;11.50;;
75246;SDS011;63844;50.042;19.224;2023-03-20T07:08:01;25.80;;;11.70;;
75246;SDS011;63844;50.042;19.224;2023-03-20T07:10:28;23.60;;;10.90;;
75246;SDS011;63844;50.042;19.224;2023-03-20T07:12:54;21.30;;;10.10;;
75246;SDS011;63844;50.042;19.224;2023-03-20T07:15:21;23.10;;;9.80;;
75246;SDS011;63844;50.042;19.224;2023-03-20T07:17:48;19.50;;;9.10;;
75246;SDS011;63844;50.042;19.224;2023-03-20T07:20:14;20.20;;;9.60;;
75246;SDS011;63844;50.042;19.224;2023-03-20T07:22:42;20.40;;;11.00;;
75246;SDS011;63844;50.042;19.224;2023-03-20T07:25:08;30.70;;;11.60;;
75246;SDS011;63844;50.042;19.224;2023-03-20T07:27:36;22.20;;;10.00;;
75246;SDS011;63844;50.042;19.224;2023-03-20T07:30:03;10.70;;;5.20;;
75246;SDS011;63844;50.042;19.224;2023-03-20T07:32:31;22.20;;;10.10;;
75246;SDS011;63844;50.042;19.224;2023-03-20T07:37:24;19.00;;;9.90;;
75246;SDS011;63844;50.042;19.224;2023-03-20T07:39:51;22.20;;;10.20;;
75246;SDS011;63844;50.042;19.224;2023-03-20T07:42:17;14.70;;;8.30;;
75246;SDS011;63844;50.042;19.224;2023-03-20T07:44:44;20.50;;;10.00;;
75246;SDS011;63844;50.042;19.224;2023-03-20T07:47:10;20.80;;;10.00;;
75246;SDS011;63844;50.042;19.224;2023-03-20T07:49:37;15.30;;;7.20;;
75246;SDS011;63844;50.042;19.224;2023-03-20T07:52:03;11.80;;;5.70;;
75246;SDS011;63844;50.042;19.224;2023-03-20T07:54:30;20.80;;;10.10;;
75246;SDS011;63844;50.042;19.224;2023-03-20T07:56:56;22.30;;;10.60;;
75246;SDS011;63844;50.042;19.224;2023-03-20T07:59:23;19.20;;;9.40;;
75246;SDS011;63844;50.042;19.224;2023-03-20T08:01:49;21.10;;;10.70;;
75246;SDS011;63844;50.042;19.224;2023-03-20T08:04:16;25.40;;;10.60;;
75246;SDS011;63844;50.042;19.224;2023-03-20T08:06:44;22.90;;;10.60;;
75246;SDS011;63844;50.042;19.224;2023-03-20T08:09:11;20.30;;;10.80;;
75246;SDS011;63844;50.042;19.224;2023-03-20T08:11:38;22.70;;;10.50;;
75246;SDS011;63844;50.042;19.224;2023-03-20T08:14:04;21.90;;;10.20;;
75246;SDS011;63844;50.042;19.224;2023-03-20T08:18:57;22.30;;;10.00;;
75246;SDS011;63844;50.042;19.224;2023-03-20T08:21:26;15.60;;;6.90;;
75246;SDS011;63844;50.042;19.224;2023-03-20T08:23:53;19.00;;;9.80;;
75246;SDS011;63844;50.042;19.224;2023-03-20T08:26:21;17.60;;;8.60;;
75246;SDS011;63844;50.042;19.224;2023-03-20T08:28:48;18.70;;;10.30;;
75246;SDS011;63844;50.042;19.224;2023-03-20T08:31:14;20.70;;;9.80;;
75246;SDS011;63844;50.042;19.224;2023-03-20T08:33:43;15.20;;;8.30;;
75246;SDS011;63844;50.042;19.224;2023-03-20T08:36:11;24.30;;;11.50;;
75246;SDS011;63844;50.042;19.224;2023-03-20T08:38:40;22.20;;;10.20;;
75246;SDS011;63844;50.042;19.224;2023-03-20T08:41:07;22.20;;;12.20;;
75246;SDS011;63844;50.042;19.224;2023-03-20T08:46:01;20.30;;;11.10;;
75246;SDS011;63844;50.042;19.224;2023-03-20T08:48:28;24.30;;;12.00;;
75246;SDS011;63844;50.042;19.224;2023-03-20T08:53:21;21.60;;;11.60;;
75246;SDS011;63844;50.042;19.224;2023-03-20T08:55:48;23.70;;;11.80;;
75246;SDS011;63844;50.042;19.224;2023-03-20T08:58:20;23.10;;;12.10;;
75246;SDS011;63844;50.042;19.224;2023-03-20T09:00:48;24.40;;;12.40;;
75246;SDS011;63844;50.042;19.224;2023-03-20T09:03:15;16.80;;;8.90;;
75246;SDS011;63844;50.042;19.224;2023-03-20T09:05:44;18.50;;;10.70;;
75246;SDS011;63844;50.042;19.224;2023-03-20T09:08:12;30.90;;;13.00;;
75246;SDS011;63844;50.042;19.224;2023-03-20T09:10:39;22.00;;;10.50;;
75246;SDS011;63844;50.042;19.224;2023-03-20T09:13:06;22.80;;;11.30;;
75246;SDS011;63844;50.042;19.224;2023-03-20T09:15:33;26.20;;;11.60;;
75246;SDS011;63844;50.042;19.224;2023-03-20T09:18:00;23.80;;;10.50;;
75246;SDS011;63844;50.042;19.224;2023-03-20T09:20:27;22.60;;;11.80;;
75246;SDS011;63844;50.042;19.224;2023-03-20T09:22:54;25.50;;;12.70;;
75246;SDS011;63844;50.042;19.224;2023-03-20T09:25:21;25.70;;;12.70;;
75246;SDS011;63844;50.042;19.224;2023-03-20T09:27:51;27.70;;;12.10;;
75246;SDS011;63844;50.042;19.224;2023-03-20T09:30:21;22.40;;;12.60;;
75246;SDS011;63844;50.042;19.224;2023-03-20T09:32:49;24.30;;;12.00;;
75246;SDS011;63844;50.042;19.224;2023-03-20T09:35:16;27.50;;;13.50;;
75246;SDS011;63844;50.042;19.224;2023-03-20T09:37:44;22.90;;;11.80;;
75246;SDS011;63844;50.042;19.224;2023-03-20T09:45:44;24.10;;;12.30;;
75246;SDS011;63844;50.042;19.224;2023-03-20T09:48:22;28.80;;;12.70;;
75246;SDS011;63844;50.042;19.224;2023-03-20T09:53:53;21.80;;;11.30;;
75246;SDS011;63844;50.042;19.224;2023-03-20T09:56:24;26.20;;;12.40;;
75246;SDS011;63844;50.042;19.224;2023-03-20T09:58:56;26.90;;;12.40;;
75246;SDS011;63844;50.042;19.224;2023-03-20T10:01:29;23.80;;;12.50;;
75246;SDS011;63844;50.042;19.224;2023-03-20T10:03:59;26.40;;;11.90;;
75246;SDS011;63844;50.042;19.224;2023-03-20T10:08:58;21.20;;;10.20;;
75246;SDS011;63844;50.042;19.224;2023-03-20T10:16:50;27.80;;;13.80;;
75246;SDS011;63844;50.042;19.224;2023-03-20T10:19:44;26.00;;;12.20;;
75246;SDS011;63844;50.042;19.224;2023-03-20T10:24:55;23.40;;;13.40;;
75246;SDS011;63844;50.042;19.224;2023-03-20T10:32:48;24.30;;;13.20;;
75246;SDS011;63844;50.042;19.224;2023-03-20T10:38:22;23.00;;;12.20;;
75246;SDS011;63844;50.042;19.224;2023-03-20T10:40:59;18.00;;;9.10;;
75246;SDS011;63844;50.042;19.224;2023-03-20T10:43:29;29.40;;;12.80;;
75246;SDS011;63844;50.042;19.224;2023-03-20T10:46:03;25.50;;;11.70;;
75246;SDS011;63844;50.042;19.224;2023-03-20T10:48:46;21.40;;;11.50;;
75246;SDS011;63844;50.042;19.224;2023-03-20T10:51:17;29.00;;;13.90;;
75246;SDS011;63844;50.042;19.224;2023-03-20T10:53:48;25.10;;;12.20;;
75246;SDS011;63844;50.042;19.224;2023-03-20T10:59:06;23.80;;;12.40;;
75246;SDS011;63844;50.042;19.224;2023-03-20T11:01:37;26.60;;;12.80;;
75246;SDS011;63844;50.042;19.224;2023-03-20T11:04:03;23.40;;;12.10;;
75246;SDS011;63844;50.042;19.224;2023-03-20T11:06:30;23.40;;;11.10;;
75246;SDS011;63844;50.042;19.224;2023-03-20T11:09:09;21.10;;;10.30;;
75246;SDS011;63844;50.042;19.224;2023-03-20T11:11:45;20.90;;;12.50;;
75246;SDS011;63844;50.042;19.224;2023-03-20T11:14:20;24.50;;;11.90;;
75246;SDS011;63844;50.042;19.224;2023-03-20T11:16:52;25.80;;;12.40;;
75246;SDS011;63844;50.042;19.224;2023-03-20T11:19:22;21.30;;;12.10;;
75246;SDS011;63844;50.042;19.224;2023-03-20T11:21:50;21.60;;;11.40;;
75246;SDS011;63844;50.042;19.224;2023-03-20T11:24:34;21.50;;;11.60;;
75246;SDS011;63844;50.042;19.224;2023-03-20T11:27:07;23.10;;;11.80;;
75246;SDS011;63844;50.042;19.224;2023-03-20T11:29:36;21.90;;;11.70;;
75246;SDS011;63844;50.042;19.224;2023-03-20T11:32:05;14.10;;;7.10;;
75246;SDS011;63844;50.042;19.224;2023-03-20T11:34:53;19.80;;;10.20;;
75246;SDS011;63844;50.042;19.224;2023-03-20T11:37:28;16.00;;;9.00;;
75246;SDS011;63844;50.042;19.224;2023-03-20T11:42:37;16.50;;;9.30;;
75246;SDS011;63844;50.042;19.224;2023-03-20T11:47:33;18.00;;;9.80;;
75246;SDS011;63844;50.042;19.224;2023-03-20T11:50:02;16.20;;;9.30;;
75246;SDS011;63844;50.042;19.224;2023-03-20T11:52:32;17.10;;;9.60;;
75246;SDS011;63844;50.042;19.224;2023-03-20T11:55:02;19.90;;;10.70;;
75246;SDS011;63844;50.042;19.224;2023-03-20T11:57:35;16.30;;;8.70;;
75246;SDS011;63844;50.042;19.224;2023-03-20T12:00:16;19.30;;;10.80;;
75246;SDS011;63844;50.042;19.224;2023-03-20T12:02:51;16.60;;;9.00;;
75246;SDS011;63844;50.042;19.224;2023-03-20T12:05:29;17.50;;;9.60;;
75246;SDS011;63844;50.042;19.224;2023-03-20T12:08:07;19.10;;;10.00;;
75246;SDS011;63844;50.042;19.224;2023-03-20T12:10:42;20.60;;;9.10;;
75246;SDS011;63844;50.042;19.224;2023-03-20T12:13:16;23.40;;;9.60;;
75246;SDS011;63844;50.042;19.224;2023-03-20T12:15:49;19.00;;;9.30;;
75246;SDS011;63844;50.042;19.224;2023-03-20T12:18:24;18.00;;;10.70;;
75246;SDS011;63844;50.042;19.224;2023-03-20T12:21:05;21.20;;;9.80;;
75246;SDS011;63844;50.042;19.224;2023-03-20T12:23:56;18.30;;;9.60;;
75246;SDS011;63844;50.042;19.224;2023-03-20T12:26:50;12.60;;;8.30;;
75246;SDS011;63844;50.042;19.224;2023-03-20T12:29:22;19.80;;;9.90;;
75246;SDS011;63844;50.042;19.224;2023-03-20T12:32:04;16.50;;;9.20;;
75246;SDS011;63844;50.042;19.224;2023-03-20T12:34:41;14.50;;;8.30;;
75246;SDS011;63844;50.042;19.224;2023-03-20T12:37:12;13.70;;;7.00;;
75246;SDS011;63844;50.042;19.224;2023-03-20T12:39:54;17.20;;;9.00;;
75246;SDS011;63844;50.042;19.224;2023-03-20T12:45:09;13.10;;;6.20;;
75246;SDS011;63844;50.042;19.224;2023-03-20T12:47:56;14.20;;;8.00;;
75246;SDS011;63844;50.042;19.224;2023-03-20T12:50:32;11.90;;;7.20;;
75246;SDS011;63844;50.042;19.224;2023-03-20T12:59:03;16.20;;;9.10;;
75246;SDS011;63844;50.042;19.224;2023-03-20T13:01:41;14.60;;;8.90;;
75246;SDS011;63844;50.042;19.224;2023-03-20T13:07:00;11.50;;;6.50;;
75246;SDS011;63844;50.042;19.224;2023-03-20T13:12:25;15.10;;;8.50;;
75246;SDS011;63844;50.042;19.224;2023-03-20T13:34:30;11.30;;;7.60;;
75246;SDS011;63844;50.042;19.224;2023-03-20T13:40:01;13.50;;;6.70;;
75246;SDS011;63844;50.042;19.224;2023-03-20T13:43:12;11.30;;;6.30;;
75246;SDS011;63844;50.042;19.224;2023-03-20T13:45:40;11.70;;;7.40;;
75246;SDS011;63844;50.042;19.224;2023-03-20T13:51:35;11.50;;;7.40;;
75246;SDS011;63844;50.042;19.224;2023-03-20T13:54:58;14.90;;;7.90;;
75246;SDS011;63844;50.042;19.224;2023-03-20T13:57:42;13.90;;;8.50;;
75246;SDS011;63844;50.042;19.224;2023-03-20T14:05:56;11.90;;;7.50;;
75246;SDS011;63844;50.042;19.224;2023-03-20T14:11:04;12.60;;;8.30;;
75246;SDS011;63844;50.042;19.224;2023-03-20T14:13:43;14.30;;;8.10;;
75246;SDS011;63844;50.042;19.224;2023-03-20T14:16:13;12.40;;;8.30;;
75246;SDS011;63844;50.042;19.224;2023-03-20T14:18:43;10.30;;;7.00;;
75246;SDS011;63844;50.042;19.224;2023-03-20T14:21:18;13.10;;;9.70;;
75246;SDS011;63844;50.042;19.224;2023-03-20T14:23:49;15.30;;;8.40;;
75246;SDS011;63844;50.042;19.224;2023-03-20T14:26:24;13.60;;;7.90;;
75246;SDS011;63844;50.042;19.224;2023-03-20T14:28:54;12.70;;;8.70;;
75246;SDS011;63844;50.042;19.224;2023-03-20T14:31:36;16.10;;;8.30;;
75246;SDS011;63844;50.042;19.224;2023-03-20T14:36:45;12.80;;;8.20;;
75246;SDS011;63844;50.042;19.224;2023-03-20T14:39:29;12.30;;;7.60;;
75246;SDS011;63844;50.042;19.224;2023-03-20T14:42:20;14.60;;;8.20;;
75246;SDS011;63844;50.042;19.224;2023-03-20T14:48:15;16.10;;;8.80;;
75246;SDS011;63844;50.042;19.224;2023-03-20T14:51:06;15.70;;;9.00;;
75246;SDS011;63844;50.042;19.224;2023-03-20T14:56:15;15.00;;;9.40;;
75246;SDS011;63844;50.042;19.224;2023-03-20T15:03:51;13.50;;;9.00;;
75246;SDS011;63844;50.042;19.224;2023-03-20T15:06:23;15.40;;;9.30;;
75246;SDS011;63844;50.042;19.224;2023-03-20T15:08:55;18.30;;;10.00;;
75246;SDS011;63844;50.042;19.224;2023-03-20T15:11:24;18.40;;;11.30;;
75246;SDS011;63844;50.042;19.224;2023-03-20T15:13:52;14.10;;;9.10;;
75246;SDS011;63844;50.042;19.224;2023-03-20T15:16:27;15.60;;;10.10;;
75246;SDS011;63844;50.042;19.224;2023-03-20T15:18:55;15.60;;;11.10;;
75246;SDS011;63844;50.042;19.224;2023-03-20T15:21:26;29.50;;;16.60;;
75246;SDS011;63844;50.042;19.224;2023-03-20T15:24:00;26.50;;;17.00;;
75246;SDS011;63844;50.042;19.224;2023-03-20T15:26:27;19.80;;;12.00;;
75246;SDS011;63844;50.042;19.224;2023-03-20T15:29:07;19.70;;;11.40;;
75246;SDS011;63844;50.042;19.224;2023-03-20T15:31:39;19.50;;;11.10;;
75246;SDS011;63844;50.042;19.224;2023-03-20T15:34:07;20.30;;;11.70;;
75246;SDS011;63844;50.042;19.224;2023-03-20T15:36:39;18.10;;;10.70;;
75246;SDS011;63844;50.042;19.224;2023-03-20T15:39:16;18.80;;;11.50;;
75246;SDS011;63844;50.042;19.224;2023-03-20T15:41:55;19.80;;;12.30;;
75246;SDS011;63844;50.042;19.224;2023-03-20T15:44:24;15.80;;;9.50;;
75246;SDS011;63844;50.042;19.224;2023-03-20T15:46:54;18.30;;;10.10;;
75246;SDS011;63844;50.042;19.224;2023-03-20T15:49:24;15.10;;;9.90;;
75246;SDS011;63844;50.042;19.224;2023-03-20T15:51:51;20.00;;;9.90;;
75246;SDS011;63844;50.042;19.224;2023-03-20T15:54:19;17.60;;;11.90;;
75246;SDS011;63844;50.042;19.224;2023-03-20T15:56:47;18.90;;;11.00;;
75246;SDS011;63844;50.042;19.224;2023-03-20T15:59:18;21.80;;;13.90;;
75246;SDS011;63844;50.042;19.224;2023-03-20T16:01:48;17.70;;;10.50;;
75246;SDS011;63844;50.042;19.224;2023-03-20T16:04:18;19.60;;;12.60;;
75246;SDS011;63844;50.042;19.224;2023-03-20T16:06:46;20.70;;;11.60;;
75246;SDS011;63844;50.042;19.224;2023-03-20T16:09:41;20.20;;;10.30;;
75246;SDS011;63844;50.042;19.224;2023-03-20T16:12:08;18.70;;;11.00;;
75246;SDS011;63844;50.042;19.224;2023-03-20T16:14:41;17.90;;;11.30;;
75246;SDS011;63844;50.042;19.224;2023-03-20T16:17:09;15.80;;;8.90;;
75246;SDS011;63844;50.042;19.224;2023-03-20T16:19:38;15.00;;;10.30;;
75246;SDS011;63844;50.042;19.224;2023-03-20T16:22:22;14.30;;;9.90;;
75246;SDS011;63844;50.042;19.224;2023-03-20T16:24:53;18.50;;;10.70;;
75246;SDS011;63844;50.042;19.224;2023-03-20T16:27:43;16.50;;;10.80;;
75246;SDS011;63844;50.042;19.224;2023-03-20T16:30:18;17.20;;;11.50;;
75246;SDS011;63844;50.042;19.224;2023-03-20T16:32:49;17.50;;;10.40;;
75246;SDS011;63844;50.042;19.224;2023-03-20T16:35:29;16.90;;;10.10;;
75246;SDS011;63844;50.042;19.224;2023-03-20T16:38:12;17.90;;;10.70;;
75246;SDS011;63844;50.042;19.224;2023-03-20T16:40:41;19.50;;;10.90;;
75246;SDS011;63844;50.042;19.224;2023-03-20T16:43:17;18.90;;;10.80;;
75246;SDS011;63844;50.042;19.224;2023-03-20T16:45:52;18.70;;;11.10;;
75246;SDS011;63844;50.042;19.224;2023-03-20T16:48:29;20.60;;;12.70;;
75246;SDS011;63844;50.042;19.224;2023-03-20T16:51:21;17.20;;;11.50;;
75246;SDS011;63844;50.042;19.224;2023-03-20T16:53:58;22.40;;;11.00;;
75246;SDS011;63844;50.042;19.224;2023-03-20T16:56:27;19.60;;;11.70;;
75246;SDS011;63844;50.042;19.224;2023-03-20T16:59:05;20.40;;;13.00;;
75246;SDS011;63844;50.042;19.224;2023-03-20T17:01:33;19.00;;;12.00;;
75246;SDS011;63844;50.042;19.224;2023-03-20T17:06:53;17.50;;;11.00;;